createdAt,value
2024-02-19T00:00:17.132Z,10.20
2024-02-19T00:02:45.775Z,10.24
2024-02-19T00:05:14.175Z,10.23
2024-02-19T00:07:42.790Z,10.29
2024-02-19T00:10:12.690Z,10.24
2024-02-19T00:12:41.090Z,10.43
2024-02-19T00:15:10.531Z,10.53
2024-02-19T00:17:39.145Z,10.60
2024-02-19T00:20:09.457Z,10.61
2024-02-19T00:22:37.836Z,10.51
2024-02-19T00:25:06.932Z,10.59
2024-02-19T00:27:36.716Z,10.59
2024-02-19T00:30:06.477Z,10.71
2024-02-19T00:32:34.979Z,10.67
2024-02-19T00:35:03.456Z,10.67
2024-02-19T00:37:31.793Z,10.63
2024-02-19T00:40:00.280Z,10.68
2024-02-19T00:42:29.198Z,10.62
2024-02-19T00:44:59.282Z,10.63
2024-02-19T00:47:27.690Z,10.60
2024-02-19T00:49:56.876Z,10.58
2024-02-19T00:52:25.292Z,10.60
2024-02-19T00:54:53.655Z,10.65
2024-02-19T00:57:22.000Z,10.58
2024-02-19T00:59:50.283Z,10.80
2024-02-19T01:02:20.639Z,10.75
2024-02-19T01:04:50.479Z,10.78
2024-02-19T01:07:18.982Z,10.72
2024-02-19T01:09:47.339Z,10.83
2024-02-19T01:12:15.857Z,10.80
2024-02-19T01:14:44.674Z,10.88
2024-02-19T01:17:12.992Z,10.86
2024-02-19T01:19:42.812Z,10.76
2024-02-19T01:22:11.448Z,10.84
2024-02-19T01:24:40.313Z,10.83
2024-02-19T01:27:08.727Z,11.03
2024-02-19T01:29:37.093Z,10.95
2024-02-19T01:32:06.426Z,11.08
2024-02-19T01:34:34.885Z,10.98
2024-02-19T01:37:06.080Z,10.96
2024-02-19T01:39:34.784Z,11.00
2024-02-19T01:42:04.676Z,11.01
2024-02-19T01:44:33.173Z,10.94
2024-02-19T01:47:01.648Z,11.05
2024-02-19T01:49:30.653Z,11.13
2024-02-19T01:52:00.338Z,11.07
2024-02-19T01:54:30.120Z,11.09
2024-02-19T01:56:58.439Z,11.11
2024-02-19T01:59:28.599Z,11.17
2024-02-19T02:01:57.803Z,11.06
2024-02-19T02:04:28.009Z,11.25
2024-02-19T02:06:56.990Z,11.23
2024-02-19T02:09:25.630Z,11.15
2024-02-19T02:11:55.383Z,11.13
2024-02-19T02:14:23.826Z,11.12
2024-02-19T02:16:52.164Z,11.16
2024-02-19T02:19:20.607Z,11.14
2024-02-19T02:21:49.955Z,11.10
2024-02-19T02:24:19.775Z,11.15
2024-02-19T02:26:49.450Z,11.15
2024-02-19T02:29:17.783Z,11.20
2024-02-19T02:31:46.112Z,11.32
2024-02-19T02:34:14.685Z,11.37
2024-02-19T02:36:43.295Z,11.36
2024-02-19T02:39:11.741Z,11.38
2024-02-19T02:41:40.160Z,11.43
2024-02-19T02:44:10.048Z,11.50
2024-02-19T02:46:38.315Z,11.55
2024-02-19T02:49:06.804Z,11.52
2024-02-19T02:51:35.433Z,11.50
2024-02-19T02:54:03.831Z,11.49
2024-02-19T02:56:32.139Z,11.62
2024-02-19T02:59:00.493Z,11.79
2024-02-19T03:01:31.777Z,11.76
2024-02-19T03:04:00.437Z,11.92
2024-02-19T03:06:28.923Z,11.91
2024-02-19T03:08:57.372Z,11.94
2024-02-19T03:11:25.834Z,11.98
2024-02-19T03:13:54.370Z,12.05
2024-02-19T03:16:23.029Z,12.08
2024-02-19T03:18:54.846Z,12.11
2024-02-19T03:21:23.594Z,12.18
2024-02-19T03:23:53.444Z,12.29
2024-02-19T03:26:37.027Z,12.29
2024-02-19T03:29:15.040Z,12.38
2024-02-19T03:31:45.037Z,12.43
2024-02-19T03:34:14.969Z,12.44
2024-02-19T03:36:51.036Z,12.39
2024-02-19T03:39:19.913Z,12.47
2024-02-19T03:41:49.024Z,12.50
2024-02-19T03:44:17.810Z,12.50
2024-02-19T03:46:47.063Z,12.34
2024-02-19T03:49:17.077Z,12.36
2024-02-19T03:51:45.903Z,12.29
2024-02-19T03:54:14.638Z,12.30
2024-02-19T03:56:43.250Z,12.24
2024-02-19T03:59:12.562Z,12.29
2024-02-19T04:01:41.033Z,12.38
2024-02-19T04:04:09.545Z,12.34
2024-02-19T04:06:39.408Z,12.36
2024-02-19T04:09:07.819Z,12.35
2024-02-19T04:11:36.399Z,12.36
2024-02-19T04:14:04.801Z,12.27
2024-02-19T04:16:33.158Z,12.37
2024-02-19T04:19:01.616Z,12.40
2024-02-19T04:21:30.068Z,12.33
2024-02-19T04:23:59.789Z,11.64
2024-02-19T04:26:28.144Z,12.25
2024-02-19T04:28:57.468Z,12.27
2024-02-19T04:31:25.882Z,12.25
2024-02-19T04:33:54.369Z,12.13
2024-02-19T04:36:22.797Z,12.12
2024-02-19T04:38:51.244Z,12.15
2024-02-19T04:41:21.102Z,12.19
2024-02-19T04:43:49.436Z,12.15
2024-02-19T04:46:18.059Z,12.20
2024-02-19T04:48:46.837Z,12.25
2024-02-19T04:51:15.345Z,12.21
2024-02-19T04:53:43.933Z,12.23
2024-02-19T04:56:16.804Z,12.30
2024-02-19T04:58:46.697Z,12.35
2024-02-19T05:01:15.185Z,12.40
2024-02-19T05:03:43.704Z,12.43
2024-02-19T05:06:12.106Z,12.49
2024-02-19T05:08:40.533Z,12.50
2024-02-19T05:11:09.587Z,12.57
2024-02-19T05:13:37.957Z,12.52
2024-02-19T05:16:08.870Z,12.42
2024-02-19T05:18:37.585Z,12.32
2024-02-19T05:21:07.402Z,12.36
2024-02-19T05:23:36.172Z,12.36
2024-02-19T05:26:07.626Z,12.38
2024-02-19T05:28:38.006Z,12.22
2024-02-19T05:31:07.931Z,12.23
2024-02-19T05:33:36.334Z,12.32
2024-02-19T05:36:04.899Z,12.43
2024-02-19T05:38:35.468Z,12.43
2024-02-19T05:41:05.454Z,12.44
2024-02-19T05:43:33.791Z,12.48
2024-02-19T05:46:02.324Z,12.43
2024-02-19T05:48:32.391Z,12.51
2024-02-19T05:51:04.501Z,12.53
2024-02-19T05:53:33.583Z,12.53
2024-02-19T05:56:02.123Z,12.57
2024-02-19T05:58:30.588Z,12.65
2024-02-19T06:00:59.220Z,12.59
2024-02-19T06:03:27.883Z,12.70
2024-02-19T06:05:57.656Z,12.73
2024-02-19T06:08:26.030Z,12.65
2024-02-19T06:10:55.529Z,12.63
2024-02-19T06:13:23.975Z,12.70
2024-02-19T06:15:52.425Z,12.71
2024-02-19T06:18:20.915Z,12.67
2024-02-19T06:20:49.933Z,12.65
2024-02-19T06:23:19.735Z,12.61
2024-02-19T06:25:48.123Z,12.59
2024-02-19T06:28:16.683Z,12.58
2024-02-19T06:30:45.474Z,12.54
2024-02-19T06:33:14.068Z,12.51
2024-02-19T06:35:42.566Z,12.48
2024-02-19T06:38:11.023Z,12.45
2024-02-19T06:40:40.775Z,12.46
2024-02-19T06:43:09.236Z,12.46
2024-02-19T06:45:37.701Z,12.38
2024-02-19T06:48:07.729Z,12.37
2024-02-19T06:50:36.199Z,12.35
2024-02-19T06:53:07.170Z,12.36
2024-02-19T06:55:35.501Z,12.32
2024-02-19T06:58:05.630Z,12.27
2024-02-19T07:00:34.187Z,12.43
2024-02-19T07:03:02.613Z,12.40
2024-02-19T07:05:31.146Z,12.42
2024-02-19T07:07:59.569Z,12.29
2024-02-19T07:10:28.053Z,12.23
2024-02-19T07:12:56.526Z,12.15
2024-02-19T07:15:26.236Z,12.19
2024-02-19T07:17:54.653Z,12.19
2024-02-19T07:20:22.987Z,12.09
2024-02-19T07:22:51.419Z,12.24
2024-02-19T07:25:21.964Z,12.29
2024-02-19T07:27:51.173Z,12.41
2024-02-19T07:30:20.110Z,12.48
2024-02-19T07:32:49.858Z,12.43
2024-02-19T07:35:18.228Z,12.40
2024-02-19T07:37:46.537Z,12.38
2024-02-19T07:40:15.110Z,12.41
2024-02-19T07:42:43.859Z,12.46
2024-02-19T07:45:12.477Z,12.41
2024-02-19T07:47:40.965Z,12.34
2024-02-19T07:50:11.653Z,12.35
2024-02-19T07:52:39.971Z,12.39
2024-02-19T07:55:09.357Z,12.32
2024-02-19T07:57:37.783Z,12.32
2024-02-19T08:00:10.472Z,12.34
2024-02-19T08:02:38.858Z,12.35
2024-02-19T08:05:08.371Z,12.36
2024-02-19T08:07:38.569Z,12.31
2024-02-19T08:10:08.305Z,12.31
2024-02-19T08:12:40.371Z,12.30
2024-02-19T08:15:11.831Z,12.34
2024-02-19T08:17:40.249Z,12.38
2024-02-19T08:20:11.048Z,12.35
2024-02-19T08:22:43.739Z,12.29
2024-02-19T08:25:13.605Z,12.27
2024-02-19T08:27:41.975Z,12.20
2024-02-19T08:30:11.171Z,12.25
2024-02-19T08:32:39.564Z,12.35
2024-02-19T08:35:08.384Z,12.34
2024-02-19T08:37:37.002Z,12.39
2024-02-19T08:40:09.185Z,12.32
2024-02-19T08:42:38.288Z,12.26
2024-02-19T08:45:09.297Z,12.21
2024-02-19T08:47:38.273Z,12.18
2024-02-19T08:50:08.097Z,12.24
2024-02-19T08:52:36.571Z,12.20
2024-02-19T08:55:07.030Z,12.21
2024-02-19T08:57:35.657Z,12.19
2024-02-19T09:00:05.689Z,12.22
2024-02-19T09:02:34.165Z,12.27
2024-02-19T09:05:02.595Z,12.31
2024-02-19T09:07:31.122Z,12.40
2024-02-19T09:09:59.633Z,12.43
2024-02-19T09:12:29.332Z,12.46
2024-02-19T09:14:59.476Z,12.53
2024-02-19T09:17:28.174Z,12.47
2024-02-19T09:19:57.135Z,12.48
2024-02-19T09:22:25.716Z,12.49
2024-02-19T09:24:54.136Z,12.45
2024-02-19T09:27:22.572Z,12.45
2024-02-19T09:29:52.303Z,12.53
2024-02-19T09:32:20.748Z,12.52
2024-02-19T09:34:49.228Z,12.58
2024-02-19T09:37:17.648Z,12.64
2024-02-19T09:39:51.041Z,12.68
2024-02-19T09:42:19.642Z,12.80
2024-02-19T09:44:48.051Z,12.81
2024-02-19T09:47:20.805Z,12.91
2024-02-19T09:49:49.963Z,12.88
2024-02-19T09:52:26.898Z,12.96
2024-02-19T09:54:58.002Z,12.94
2024-02-19T09:57:29.470Z,13.02
2024-02-19T09:59:59.718Z,13.11
2024-02-19T10:02:30.214Z,13.09
2024-02-19T10:05:00.702Z,13.03
2024-02-19T10:07:30.111Z,13.05
2024-02-19T10:09:58.659Z,13.09
2024-02-19T10:12:27.021Z,13.14
2024-02-19T10:14:55.379Z,13.16
2024-02-19T10:17:24.349Z,12.99
2024-02-19T10:20:03.216Z,13.18
2024-02-19T10:22:31.613Z,12.84
2024-02-19T10:25:01.809Z,13.07
2024-02-19T10:27:32.240Z,13.08
2024-02-19T10:30:01.875Z,13.03
2024-02-19T10:32:30.677Z,13.08
2024-02-19T10:34:59.235Z,13.10
2024-02-19T10:37:28.991Z,13.13
2024-02-19T10:39:57.461Z,12.93
2024-02-19T10:42:26.045Z,12.87
2024-02-19T10:44:55.208Z,12.91
2024-02-19T10:47:25.007Z,12.92
2024-02-19T10:50:00.508Z,12.92
2024-02-19T10:52:32.765Z,12.93
2024-02-19T10:55:10.661Z,12.53
2024-02-19T10:57:51.506Z,12.18
2024-02-19T11:00:26.239Z,12.63
2024-02-19T11:03:06.098Z,12.69
2024-02-19T11:05:39.289Z,12.75
2024-02-19T11:08:21.102Z,12.54
2024-02-19T11:10:50.964Z,12.76
2024-02-19T11:13:22.122Z,12.71
2024-02-19T11:15:50.809Z,12.61
2024-02-19T11:18:20.716Z,12.70
2024-02-19T11:20:50.870Z,12.69
2024-02-19T11:23:21.794Z,12.65
2024-02-19T11:25:50.476Z,12.63
2024-02-19T11:28:18.956Z,12.51
2024-02-19T11:30:48.157Z,12.39
2024-02-19T11:33:16.762Z,12.38
2024-02-19T11:35:45.889Z,12.37
2024-02-19T11:38:14.326Z,12.30
2024-02-19T11:40:44.120Z,12.34
2024-02-19T11:43:12.782Z,12.26
2024-02-19T11:45:41.472Z,12.19
2024-02-19T11:48:10.387Z,12.20
2024-02-19T11:50:40.581Z,12.22
2024-02-19T11:53:10.391Z,12.27
2024-02-19T11:55:40.176Z,12.11
2024-02-19T11:58:11.538Z,12.21
2024-02-19T12:00:40.166Z,12.14
2024-02-19T12:03:09.122Z,11.99
2024-02-19T12:05:38.136Z,12.02
2024-02-19T12:08:07.338Z,11.95
2024-02-19T12:10:36.501Z,12.04
2024-02-19T12:13:05.304Z,11.99
2024-02-19T12:15:35.116Z,12.02
2024-02-19T12:18:03.802Z,11.94
2024-02-19T12:20:32.771Z,11.71
2024-02-19T12:23:01.384Z,11.91
2024-02-19T12:25:29.785Z,11.78
2024-02-19T12:27:58.168Z,11.82
2024-02-19T12:30:26.639Z,11.76
2024-02-19T12:32:56.949Z,11.71
2024-02-19T12:35:25.534Z,11.83
2024-02-19T12:37:54.086Z,11.68
2024-02-19T12:40:22.558Z,11.79
2024-02-19T12:42:51.319Z,11.74
2024-02-19T12:45:21.133Z,11.77
2024-02-19T12:47:49.615Z,11.74
2024-02-19T12:50:20.285Z,11.83
2024-02-19T12:52:49.138Z,11.83
2024-02-19T12:55:19.596Z,11.85
2024-02-19T12:57:48.490Z,11.93
2024-02-19T13:00:17.433Z,12.01
2024-02-19T13:02:46.347Z,12.12
2024-02-19T13:05:15.057Z,12.06
2024-02-19T13:07:48.835Z,12.12
2024-02-19T13:10:17.351Z,12.10
2024-02-19T13:12:46.129Z,12.14
2024-02-19T13:15:15.935Z,12.13
2024-02-19T13:17:46.539Z,12.09
2024-02-19T13:20:15.982Z,12.06
2024-02-19T13:22:46.371Z,12.01
2024-02-19T13:25:15.856Z,12.00
2024-02-19T13:27:45.427Z,12.27
2024-02-19T13:30:15.396Z,12.02
2024-02-19T13:35:33.731Z,12.25
2024-02-19T13:38:04.664Z,11.88
2024-02-19T13:40:33.431Z,12.13
2024-02-19T13:43:02.741Z,12.15
2024-02-19T13:45:58.793Z,12.21
2024-02-19T13:48:28.331Z,12.14
2024-02-19T13:50:58.169Z,12.18
2024-02-19T13:53:29.255Z,12.18
2024-02-19T13:55:59.068Z,12.11
2024-02-19T13:58:29.625Z,12.00
2024-02-19T14:00:59.198Z,12.03
2024-02-19T14:03:27.974Z,11.81
2024-02-19T14:05:56.383Z,11.91
2024-02-19T14:08:25.260Z,12.00
2024-02-19T14:10:56.673Z,11.82
2024-02-19T14:13:25.443Z,11.70
2024-02-19T14:15:53.993Z,11.52
2024-02-19T14:18:22.492Z,11.44
2024-02-19T14:20:50.949Z,11.37
2024-02-19T14:23:19.404Z,11.34
2024-02-19T14:25:50.659Z,11.10
2024-02-19T14:28:22.267Z,11.21
2024-02-19T14:30:50.869Z,11.18
2024-02-19T14:33:19.580Z,11.19
2024-02-19T14:35:48.493Z,10.87
2024-02-19T14:38:16.882Z,10.92
2024-02-19T14:40:45.653Z,11.21
2024-02-19T14:43:14.022Z,11.17
2024-02-19T14:45:43.911Z,11.09
2024-02-19T14:48:12.412Z,11.25
2024-02-19T14:50:41.688Z,11.43
2024-02-19T14:53:10.278Z,11.54
2024-02-19T14:55:38.639Z,11.63
2024-02-19T14:58:07.745Z,11.61
2024-02-19T15:00:37.268Z,11.60
2024-02-19T15:03:11.198Z,11.59
2024-02-19T15:05:40.654Z,11.66
2024-02-19T15:08:11.174Z,11.60
2024-02-19T15:10:39.597Z,11.78
2024-02-19T15:13:08.069Z,11.59
2024-02-19T15:15:36.503Z,11.71
2024-02-19T15:18:07.086Z,11.64
2024-02-19T15:20:35.328Z,11.70
2024-02-19T15:23:06.285Z,11.69
2024-02-19T15:25:35.323Z,11.56
2024-02-19T15:28:04.255Z,11.53
2024-02-19T15:30:32.583Z,11.38
2024-02-19T15:33:01.073Z,11.40
2024-02-19T15:35:31.019Z,11.38
2024-02-19T15:38:00.232Z,11.30
2024-02-19T15:40:28.612Z,11.14
2024-02-19T15:42:57.112Z,11.00
2024-02-19T15:45:25.589Z,11.03
2024-02-19T15:47:53.937Z,11.05
2024-02-19T15:50:22.756Z,11.01
2024-02-19T15:52:58.870Z,10.99
2024-02-19T15:55:33.764Z,10.84
2024-02-19T15:58:02.259Z,10.81
2024-02-19T16:00:33.418Z,10.68
2024-02-19T16:03:01.829Z,10.63
2024-02-19T16:05:30.185Z,10.72
2024-02-19T16:08:00.037Z,10.64
2024-02-19T16:10:29.756Z,10.85
2024-02-19T16:12:58.447Z,10.77
2024-02-19T16:15:26.804Z,10.78
2024-02-19T16:17:55.228Z,10.78
2024-02-19T16:20:23.605Z,10.63
2024-02-19T16:22:54.884Z,10.75
2024-02-19T16:25:24.973Z,10.75
2024-02-19T16:27:54.399Z,10.72
2024-02-19T16:30:23.463Z,10.63
2024-02-19T16:32:51.925Z,10.80
2024-02-19T16:35:20.569Z,10.84
2024-02-19T16:37:49.195Z,10.77
2024-02-19T16:40:17.637Z,10.73
2024-02-19T16:42:47.408Z,10.78
2024-02-19T16:45:15.881Z,10.72
2024-02-19T16:47:44.250Z,10.84
2024-02-19T16:50:12.760Z,10.83
2024-02-19T16:52:41.307Z,10.75
2024-02-19T16:55:10.650Z,10.81
2024-02-19T16:57:39.065Z,10.77
2024-02-19T17:00:10.891Z,10.70
2024-02-19T17:02:39.569Z,10.85
2024-02-19T17:05:09.352Z,10.57
2024-02-19T17:07:38.166Z,10.85
2024-02-19T17:10:08.469Z,10.84
2024-02-19T17:12:36.842Z,10.80
2024-02-19T17:15:05.714Z,10.82
2024-02-19T17:17:35.480Z,10.85
2024-02-19T17:20:04.696Z,10.02
2024-02-19T17:22:33.189Z,10.80
2024-02-19T17:25:01.662Z,10.82
2024-02-19T17:27:30.206Z,10.77
2024-02-19T17:29:58.540Z,10.83
2024-02-19T17:32:26.998Z,10.85
2024-02-19T17:34:56.726Z,10.80
2024-02-19T17:37:26.855Z,10.84
2024-02-19T17:39:55.843Z,10.80
2024-02-19T17:42:25.371Z,10.79
2024-02-19T17:44:53.777Z,10.81
2024-02-19T17:47:22.744Z,10.78
2024-02-19T17:49:51.133Z,10.73
2024-02-19T17:52:20.920Z,10.77
2024-02-19T17:54:49.309Z,10.82
2024-02-19T17:57:17.694Z,10.93
2024-02-19T17:59:46.162Z,10.79
2024-02-19T18:02:14.880Z,10.77
2024-02-19T18:04:47.449Z,10.90
2024-02-19T18:07:15.828Z,10.87
2024-02-19T18:09:45.746Z,10.93
2024-02-19T18:12:14.134Z,10.99
2024-02-19T18:14:42.712Z,10.98
2024-02-19T18:17:11.205Z,10.84
2024-02-19T18:19:40.895Z,10.92
2024-02-19T18:22:10.994Z,10.86
2024-02-19T18:24:40.048Z,10.89
2024-02-19T18:27:10.577Z,10.85
2024-02-19T18:29:39.373Z,10.84
2024-02-19T18:32:08.792Z,10.06
2024-02-19T18:34:37.212Z,10.77
2024-02-19T18:37:06.306Z,10.78
2024-02-19T18:39:35.786Z,10.85
2024-02-19T18:42:05.659Z,10.84
2024-02-19T18:44:35.349Z,10.87
2024-02-19T18:47:04.451Z,10.86
2024-02-19T18:49:34.913Z,10.99
2024-02-19T18:52:03.487Z,10.99
2024-02-19T18:54:32.857Z,10.96
2024-02-19T18:57:04.691Z,10.97
2024-02-19T18:59:37.621Z,11.04
2024-02-19T19:02:06.575Z,11.10
2024-02-19T19:04:35.407Z,11.04
2024-02-19T19:07:04.051Z,10.90
2024-02-19T19:09:40.315Z,10.98
2024-02-19T19:12:10.420Z,11.14
2024-02-19T19:14:41.568Z,11.20
2024-02-19T19:17:10.166Z,11.29
2024-02-19T19:19:39.678Z,11.25
2024-02-19T19:22:08.612Z,11.41
2024-02-19T19:24:36.998Z,11.34
2024-02-19T19:27:06.287Z,11.14
2024-02-19T19:29:34.649Z,11.25
2024-02-19T19:32:05.904Z,11.20
2024-02-19T19:34:34.418Z,11.12
2024-02-19T19:37:02.889Z,11.15
2024-02-19T19:39:31.197Z,11.18
2024-02-19T19:41:59.559Z,11.13
2024-02-19T19:44:27.870Z,11.12
2024-02-19T19:46:57.557Z,10.96
2024-02-19T19:49:27.405Z,11.03
2024-02-19T19:51:56.881Z,11.12
2024-02-19T19:54:25.376Z,11.05
2024-02-19T19:56:53.773Z,10.82
2024-02-19T19:59:22.163Z,10.83
2024-02-19T20:01:51.093Z,10.79
2024-02-19T20:04:20.870Z,10.86
2024-02-19T20:06:50.978Z,10.90
2024-02-19T20:09:20.489Z,10.85
2024-02-19T20:11:48.896Z,10.90
2024-02-19T20:14:17.294Z,10.90
2024-02-19T20:16:45.692Z,10.79
2024-02-19T20:19:14.570Z,10.83
2024-02-19T20:21:42.929Z,10.91
2024-02-19T20:24:12.622Z,10.94
2024-02-19T20:26:41.948Z,10.76
2024-02-19T20:29:11.449Z,11.00
2024-02-19T20:31:39.853Z,11.01
2024-02-19T20:34:08.485Z,10.82
2024-02-19T20:36:38.852Z,10.95
2024-02-19T20:39:10.386Z,10.85
2024-02-19T20:41:43.885Z,10.93
2024-02-19T20:44:12.287Z,10.89
2024-02-19T20:46:40.898Z,10.96
2024-02-19T20:49:09.259Z,10.94
2024-02-19T20:51:37.654Z,10.87
2024-02-19T20:54:06.333Z,10.97
2024-02-19T20:56:34.765Z,10.06
2024-02-19T20:59:04.907Z,10.70
2024-02-19T21:01:35.057Z,10.74
2024-02-19T21:04:06.034Z,10.74
2024-02-19T21:06:34.523Z,10.78
2024-02-19T21:09:03.020Z,10.71
2024-02-19T21:11:32.579Z,10.82
2024-02-19T21:14:01.380Z,10.73
2024-02-19T21:16:31.216Z,10.72
2024-02-19T21:19:00.666Z,10.80
2024-02-19T21:21:34.551Z,10.83
2024-02-19T21:24:04.126Z,10.88
2024-02-19T21:26:32.789Z,10.75
2024-02-19T21:29:01.205Z,10.55
2024-02-19T21:31:31.249Z,10.58
2024-02-19T21:33:59.957Z,10.50
2024-02-19T21:36:28.499Z,10.57
2024-02-19T21:38:56.957Z,10.60
2024-02-19T21:41:25.513Z,10.64
2024-02-19T21:43:53.804Z,10.64
2024-02-19T21:46:22.210Z,10.58
2024-02-19T21:48:54.621Z,10.61
2024-02-19T21:51:23.319Z,10.45
2024-02-19T21:53:51.658Z,10.26
2024-02-19T21:56:20.543Z,10.57
2024-02-19T21:58:48.964Z,10.44
2024-02-19T22:01:17.521Z,9.95
2024-02-19T22:03:46.040Z,10.26
2024-02-19T22:06:15.805Z,10.24
2024-02-19T22:08:44.310Z,10.28
2024-02-19T22:11:14.500Z,10.14
2024-02-19T22:13:42.997Z,10.14
2024-02-19T22:16:11.435Z,10.23
2024-02-19T22:18:39.828Z,10.07
2024-02-19T22:21:08.137Z,10.20
2024-02-19T22:23:37.823Z,10.22
2024-02-19T22:26:06.423Z,10.26
2024-02-19T22:28:36.302Z,10.11
2024-02-19T22:31:07.076Z,10.08
2024-02-19T22:33:36.718Z,10.12
2024-02-19T22:36:05.877Z,10.04
2024-02-19T22:38:34.232Z,10.02
2024-02-19T22:41:04.030Z,9.96
2024-02-19T22:43:32.453Z,10.17
2024-02-19T22:46:00.857Z,10.06
2024-02-19T22:48:29.392Z,10.05
2024-02-19T22:50:57.903Z,10.14
2024-02-19T22:53:26.246Z,10.07
2024-02-19T22:55:54.829Z,10.07
2024-02-19T22:58:31.694Z,10.11
2024-02-19T23:01:03.388Z,10.09
2024-02-19T23:03:32.166Z,10.10
2024-02-19T23:06:00.552Z,10.04
2024-02-19T23:08:28.908Z,9.98
2024-02-19T23:10:57.348Z,10.14
2024-02-19T23:13:27.148Z,10.09
2024-02-19T23:15:55.490Z,10.07
2024-02-19T23:18:24.239Z,9.96
2024-02-19T23:20:52.742Z,10.13
2024-02-19T23:23:21.152Z,10.13
2024-02-19T23:25:53.883Z,10.09
2024-02-19T23:28:23.056Z,10.17
2024-02-19T23:30:53.485Z,9.87
2024-02-19T23:33:22.323Z,10.11
2024-02-19T23:35:50.921Z,9.94
2024-02-19T23:38:23.585Z,10.24
2024-02-19T23:40:52.317Z,10.19
2024-02-19T23:43:20.996Z,9.99
2024-02-19T23:45:49.751Z,10.09
2024-02-19T23:48:19.656Z,10.22
2024-02-19T23:50:48.491Z,10.10
2024-02-19T23:53:17.209Z,9.57
2024-02-19T23:55:45.680Z,10.13
2024-02-19T23:58:14.214Z,10.13
